sensor_id;sensor_type;location;lat;lon;timestamp;P1;durP1;ratioP1;P2;durP2;ratioP2
77359;SDS011;66426;51.454;7.266;2023-04-23T00:00:12;38.67;;;18.23;;
77359;SDS011;66426;51.454;7.266;2023-04-23T00:01:15;34.67;;;17.05;;
77359;SDS011;66426;51.454;7.266;2023-04-23T00:02:18;35.90;;;16.92;;
77359;SDS011;66426;51.454;7.266;2023-04-23T00:03:19;36.80;;;17.55;;
77359;SDS011;66426;51.454;7.266;2023-04-23T00:04:21;37.60;;;17.98;;
77359;SDS011;66426;51.454;7.266;2023-04-23T00:05:24;33.45;;;16.67;;
77359;SDS011;66426;51.454;7.266;2023-04-23T00:06:27;33.83;;;16.50;;
77359;SDS011;66426;51.454;7.266;2023-04-23T00:07:29;34.20;;;18.02;;
77359;SDS011;66426;51.454;7.266;2023-04-23T00:08:32;36.70;;;18.45;;
77359;SDS011;66426;51.454;7.266;2023-04-23T00:09:33;36.97;;;18.38;;
77359;SDS011;66426;51.454;7.266;2023-04-23T00:10:35;35.63;;;17.20;;
77359;SDS011;66426;51.454;7.266;2023-04-23T00:11:37;33.70;;;16.98;;
77359;SDS011;66426;51.454;7.266;2023-04-23T00:12:39;35.65;;;18.02;;
77359;SDS011;66426;51.454;7.266;2023-04-23T00:13:42;34.15;;;17.00;;
77359;SDS011;66426;51.454;7.266;2023-04-23T00:14:43;34.80;;;17.45;;
77359;SDS011;66426;51.454;7.266;2023-04-23T00:15:45;35.25;;;18.63;;
77359;SDS011;66426;51.454;7.266;2023-04-23T00:16:46;31.77;;;16.17;;
77359;SDS011;66426;51.454;7.266;2023-04-23T00:17:48;40.40;;;18.92;;
77359;SDS011;66426;51.454;7.266;2023-04-23T00:18:48;31.88;;;16.95;;
77359;SDS011;66426;51.454;7.266;2023-04-23T00:19:49;35.70;;;18.15;;
77359;SDS011;66426;51.454;7.266;2023-04-23T00:20:51;36.95;;;17.98;;
77359;SDS011;66426;51.454;7.266;2023-04-23T00:21:52;37.90;;;18.45;;
77359;SDS011;66426;51.454;7.266;2023-04-23T00:22:53;36.67;;;17.75;;
77359;SDS011;66426;51.454;7.266;2023-04-23T00:23:54;36.28;;;16.73;;
77359;SDS011;66426;51.454;7.266;2023-04-23T00:24:55;32.35;;;17.20;;
77359;SDS011;66426;51.454;7.266;2023-04-23T00:25:56;35.80;;;18.15;;
77359;SDS011;66426;51.454;7.266;2023-04-23T00:26:56;34.10;;;18.80;;
77359;SDS011;66426;51.454;7.266;2023-04-23T00:27:57;33.05;;;16.70;;
77359;SDS011;66426;51.454;7.266;2023-04-23T00:28:59;35.38;;;18.48;;
77359;SDS011;66426;51.454;7.266;2023-04-23T00:30:00;37.38;;;18.35;;
77359;SDS011;66426;51.454;7.266;2023-04-23T00:31:02;36.85;;;17.70;;
77359;SDS011;66426;51.454;7.266;2023-04-23T00:32:03;37.33;;;18.02;;
77359;SDS011;66426;51.454;7.266;2023-04-23T00:33:04;32.08;;;17.60;;
77359;SDS011;66426;51.454;7.266;2023-04-23T00:34:05;36.58;;;18.50;;
77359;SDS011;66426;51.454;7.266;2023-04-23T00:35:06;35.88;;;18.00;;
77359;SDS011;66426;51.454;7.266;2023-04-23T00:36:08;31.75;;;17.40;;
77359;SDS011;66426;51.454;7.266;2023-04-23T00:37:08;34.72;;;17.33;;
77359;SDS011;66426;51.454;7.266;2023-04-23T00:38:09;34.80;;;16.88;;
77359;SDS011;66426;51.454;7.266;2023-04-23T00:39:10;34.60;;;17.23;;
77359;SDS011;66426;51.454;7.266;2023-04-23T00:40:11;36.35;;;17.98;;
77359;SDS011;66426;51.454;7.266;2023-04-23T00:41:12;36.97;;;17.92;;
77359;SDS011;66426;51.454;7.266;2023-04-23T00:42:14;33.25;;;17.30;;
77359;SDS011;66426;51.454;7.266;2023-04-23T00:43:16;33.58;;;16.95;;
77359;SDS011;66426;51.454;7.266;2023-04-23T00:44:20;33.60;;;17.25;;
77359;SDS011;66426;51.454;7.266;2023-04-23T00:45:22;37.30;;;17.88;;
77359;SDS011;66426;51.454;7.266;2023-04-23T00:46:24;33.00;;;17.05;;
77359;SDS011;66426;51.454;7.266;2023-04-23T00:47:26;31.30;;;16.02;;
77359;SDS011;66426;51.454;7.266;2023-04-23T00:48:28;31.33;;;16.65;;
77359;SDS011;66426;51.454;7.266;2023-04-23T00:49:29;31.35;;;16.67;;
77359;SDS011;66426;51.454;7.266;2023-04-23T00:50:30;30.45;;;15.32;;
77359;SDS011;66426;51.454;7.266;2023-04-23T00:51:31;30.58;;;15.18;;
77359;SDS011;66426;51.454;7.266;2023-04-23T00:52:32;33.67;;;17.17;;
77359;SDS011;66426;51.454;7.266;2023-04-23T00:53:34;31.75;;;16.23;;
77359;SDS011;66426;51.454;7.266;2023-04-23T00:54:35;30.17;;;16.20;;
77359;SDS011;66426;51.454;7.266;2023-04-23T00:55:35;34.42;;;16.88;;
77359;SDS011;66426;51.454;7.266;2023-04-23T00:56:36;30.88;;;16.63;;
77359;SDS011;66426;51.454;7.266;2023-04-23T00:57:37;30.27;;;15.30;;
77359;SDS011;66426;51.454;7.266;2023-04-23T00:58:39;30.42;;;15.70;;
77359;SDS011;66426;51.454;7.266;2023-04-23T00:59:41;27.38;;;14.45;;
77359;SDS011;66426;51.454;7.266;2023-04-23T01:00:43;29.73;;;14.88;;
77359;SDS011;66426;51.454;7.266;2023-04-23T01:01:46;28.17;;;15.32;;
77359;SDS011;66426;51.454;7.266;2023-04-23T01:02:47;28.17;;;15.10;;
77359;SDS011;66426;51.454;7.266;2023-04-23T01:03:50;27.23;;;14.38;;
77359;SDS011;66426;51.454;7.266;2023-04-23T01:04:52;28.83;;;15.25;;
77359;SDS011;66426;51.454;7.266;2023-04-23T01:05:54;28.90;;;14.52;;
77359;SDS011;66426;51.454;7.266;2023-04-23T01:06:56;27.45;;;15.00;;
77359;SDS011;66426;51.454;7.266;2023-04-23T01:07:58;27.50;;;14.15;;
77359;SDS011;66426;51.454;7.266;2023-04-23T01:08:59;29.88;;;15.25;;
77359;SDS011;66426;51.454;7.266;2023-04-23T01:10:01;30.60;;;15.13;;
77359;SDS011;66426;51.454;7.266;2023-04-23T01:11:02;29.67;;;15.07;;
77359;SDS011;66426;51.454;7.266;2023-04-23T01:12:04;26.42;;;14.82;;
77359;SDS011;66426;51.454;7.266;2023-04-23T01:13:05;27.13;;;14.50;;
77359;SDS011;66426;51.454;7.266;2023-04-23T01:14:07;26.50;;;15.15;;
77359;SDS011;66426;51.454;7.266;2023-04-23T01:15:09;27.08;;;14.30;;
77359;SDS011;66426;51.454;7.266;2023-04-23T01:16:11;26.23;;;14.80;;
77359;SDS011;66426;51.454;7.266;2023-04-23T01:17:11;27.50;;;14.55;;
77359;SDS011;66426;51.454;7.266;2023-04-23T01:18:13;25.88;;;14.27;;
77359;SDS011;66426;51.454;7.266;2023-04-23T01:19:14;25.83;;;13.57;;
77359;SDS011;66426;51.454;7.266;2023-04-23T01:20:15;27.95;;;14.05;;
77359;SDS011;66426;51.454;7.266;2023-04-23T01:21:16;24.50;;;14.02;;
77359;SDS011;66426;51.454;7.266;2023-04-23T01:22:19;23.75;;;12.68;;
77359;SDS011;66426;51.454;7.266;2023-04-23T01:23:21;26.92;;;14.82;;
77359;SDS011;66426;51.454;7.266;2023-04-23T01:24:21;25.83;;;13.40;;
77359;SDS011;66426;51.454;7.266;2023-04-23T01:25:22;24.85;;;13.88;;
77359;SDS011;66426;51.454;7.266;2023-04-23T01:26:23;23.60;;;13.40;;
77359;SDS011;66426;51.454;7.266;2023-04-23T01:27:24;24.08;;;12.85;;
77359;SDS011;66426;51.454;7.266;2023-04-23T01:28:25;24.35;;;13.73;;
77359;SDS011;66426;51.454;7.266;2023-04-23T01:29:26;23.08;;;12.75;;
77359;SDS011;66426;51.454;7.266;2023-04-23T01:30:29;26.38;;;13.65;;
77359;SDS011;66426;51.454;7.266;2023-04-23T01:31:30;24.02;;;13.35;;
77359;SDS011;66426;51.454;7.266;2023-04-23T01:32:32;23.95;;;12.88;;
77359;SDS011;66426;51.454;7.266;2023-04-23T01:33:33;21.63;;;12.25;;
77359;SDS011;66426;51.454;7.266;2023-04-23T01:34:35;23.92;;;13.40;;
77359;SDS011;66426;51.454;7.266;2023-04-23T01:35:36;23.80;;;13.25;;
77359;SDS011;66426;51.454;7.266;2023-04-23T01:36:38;23.75;;;13.48;;
77359;SDS011;66426;51.454;7.266;2023-04-23T01:37:42;25.45;;;12.98;;
77359;SDS011;66426;51.454;7.266;2023-04-23T01:38:44;24.42;;;14.13;;
77359;SDS011;66426;51.454;7.266;2023-04-23T01:39:45;21.70;;;13.18;;
77359;SDS011;66426;51.454;7.266;2023-04-23T01:40:46;22.20;;;13.27;;
77359;SDS011;66426;51.454;7.266;2023-04-23T01:41:47;23.55;;;12.93;;
77359;SDS011;66426;51.454;7.266;2023-04-23T01:42:48;22.52;;;12.77;;
77359;SDS011;66426;51.454;7.266;2023-04-23T01:43:50;24.50;;;14.25;;
77359;SDS011;66426;51.454;7.266;2023-04-23T01:44:51;22.65;;;12.93;;
77359;SDS011;66426;51.454;7.266;2023-04-23T01:45:52;23.08;;;13.25;;
77359;SDS011;66426;51.454;7.266;2023-04-23T01:46:53;20.73;;;11.93;;
77359;SDS011;66426;51.454;7.266;2023-04-23T01:47:54;24.10;;;13.15;;
77359;SDS011;66426;51.454;7.266;2023-04-23T01:48:55;25.50;;;13.27;;
77359;SDS011;66426;51.454;7.266;2023-04-23T01:49:56;21.92;;;11.95;;
77359;SDS011;66426;51.454;7.266;2023-04-23T01:50:57;24.17;;;13.45;;
77359;SDS011;66426;51.454;7.266;2023-04-23T01:51:59;24.35;;;13.23;;
77359;SDS011;66426;51.454;7.266;2023-04-23T01:53:01;23.27;;;13.40;;
77359;SDS011;66426;51.454;7.266;2023-04-23T01:54:02;24.65;;;13.63;;
77359;SDS011;66426;51.454;7.266;2023-04-23T01:55:03;23.95;;;13.02;;
77359;SDS011;66426;51.454;7.266;2023-04-23T01:56:05;21.42;;;12.15;;
77359;SDS011;66426;51.454;7.266;2023-04-23T01:57:09;24.95;;;12.35;;
77359;SDS011;66426;51.454;7.266;2023-04-23T01:58:10;20.98;;;12.75;;
77359;SDS011;66426;51.454;7.266;2023-04-23T01:59:11;23.02;;;12.68;;
77359;SDS011;66426;51.454;7.266;2023-04-23T02:00:12;25.20;;;12.70;;
77359;SDS011;66426;51.454;7.266;2023-04-23T02:01:14;21.88;;;11.93;;
77359;SDS011;66426;51.454;7.266;2023-04-23T02:02:15;21.92;;;12.27;;
77359;SDS011;66426;51.454;7.266;2023-04-23T02:03:16;23.33;;;13.15;;
77359;SDS011;66426;51.454;7.266;2023-04-23T02:04:18;24.65;;;12.43;;
77359;SDS011;66426;51.454;7.266;2023-04-23T02:05:19;24.83;;;12.68;;
77359;SDS011;66426;51.454;7.266;2023-04-23T02:06:20;26.75;;;13.38;;
77359;SDS011;66426;51.454;7.266;2023-04-23T02:07:22;22.08;;;12.95;;
77359;SDS011;66426;51.454;7.266;2023-04-23T02:08:25;21.50;;;12.23;;
77359;SDS011;66426;51.454;7.266;2023-04-23T02:09:26;23.15;;;12.95;;
77359;SDS011;66426;51.454;7.266;2023-04-23T02:10:27;22.58;;;12.77;;
77359;SDS011;66426;51.454;7.266;2023-04-23T02:11:30;23.67;;;13.13;;
77359;SDS011;66426;51.454;7.266;2023-04-23T02:12:31;21.73;;;12.73;;
77359;SDS011;66426;51.454;7.266;2023-04-23T02:13:31;23.80;;;12.98;;
77359;SDS011;66426;51.454;7.266;2023-04-23T02:14:32;21.70;;;12.55;;
77359;SDS011;66426;51.454;7.266;2023-04-23T02:15:33;22.75;;;13.20;;
77359;SDS011;66426;51.454;7.266;2023-04-23T02:16:34;23.48;;;12.27;;
77359;SDS011;66426;51.454;7.266;2023-04-23T02:17:35;23.50;;;13.23;;
77359;SDS011;66426;51.454;7.266;2023-04-23T02:18:36;24.50;;;12.80;;
77359;SDS011;66426;51.454;7.266;2023-04-23T02:19:37;23.02;;;13.13;;
77359;SDS011;66426;51.454;7.266;2023-04-23T02:20:38;25.67;;;13.63;;
77359;SDS011;66426;51.454;7.266;2023-04-23T02:21:40;27.00;;;14.10;;
77359;SDS011;66426;51.454;7.266;2023-04-23T02:22:41;23.70;;;13.13;;
77359;SDS011;66426;51.454;7.266;2023-04-23T02:23:44;21.88;;;13.23;;
77359;SDS011;66426;51.454;7.266;2023-04-23T02:24:45;23.90;;;13.73;;
77359;SDS011;66426;51.454;7.266;2023-04-23T02:25:46;22.25;;;12.90;;
77359;SDS011;66426;51.454;7.266;2023-04-23T02:26:47;24.83;;;13.20;;
77359;SDS011;66426;51.454;7.266;2023-04-23T02:27:48;22.60;;;12.52;;
77359;SDS011;66426;51.454;7.266;2023-04-23T02:28:50;21.67;;;12.27;;
77359;SDS011;66426;51.454;7.266;2023-04-23T02:29:51;23.95;;;13.82;;
77359;SDS011;66426;51.454;7.266;2023-04-23T02:30:52;22.10;;;12.93;;
77359;SDS011;66426;51.454;7.266;2023-04-23T02:31:53;20.95;;;12.13;;
77359;SDS011;66426;51.454;7.266;2023-04-23T02:32:54;21.27;;;12.05;;
77359;SDS011;66426;51.454;7.266;2023-04-23T02:33:55;25.52;;;13.30;;
77359;SDS011;66426;51.454;7.266;2023-04-23T02:34:56;25.65;;;14.27;;
77359;SDS011;66426;51.454;7.266;2023-04-23T02:35:58;24.13;;;12.70;;
77359;SDS011;66426;51.454;7.266;2023-04-23T02:36:59;24.45;;;13.38;;
77359;SDS011;66426;51.454;7.266;2023-04-23T02:38:00;22.83;;;13.35;;
77359;SDS011;66426;51.454;7.266;2023-04-23T02:39:03;23.30;;;13.45;;
77359;SDS011;66426;51.454;7.266;2023-04-23T02:40:04;22.20;;;13.00;;
77359;SDS011;66426;51.454;7.266;2023-04-23T02:41:06;23.48;;;13.38;;
77359;SDS011;66426;51.454;7.266;2023-04-23T02:42:07;22.50;;;12.65;;
77359;SDS011;66426;51.454;7.266;2023-04-23T02:43:08;23.38;;;12.95;;
77359;SDS011;66426;51.454;7.266;2023-04-23T02:44:09;22.65;;;12.95;;
77359;SDS011;66426;51.454;7.266;2023-04-23T02:45:10;22.48;;;12.95;;
77359;SDS011;66426;51.454;7.266;2023-04-23T02:46:11;24.85;;;13.48;;
77359;SDS011;66426;51.454;7.266;2023-04-23T02:47:12;22.40;;;12.95;;
77359;SDS011;66426;51.454;7.266;2023-04-23T02:48:13;23.77;;;13.20;;
77359;SDS011;66426;51.454;7.266;2023-04-23T02:49:14;24.27;;;13.50;;
77359;SDS011;66426;51.454;7.266;2023-04-23T02:50:15;22.02;;;12.90;;
77359;SDS011;66426;51.454;7.266;2023-04-23T02:51:16;22.67;;;12.88;;
77359;SDS011;66426;51.454;7.266;2023-04-23T02:52:17;23.67;;;13.13;;
77359;SDS011;66426;51.454;7.266;2023-04-23T02:53:18;26.02;;;13.98;;
77359;SDS011;66426;51.454;7.266;2023-04-23T02:54:20;25.25;;;12.77;;
77359;SDS011;66426;51.454;7.266;2023-04-23T02:55:21;21.70;;;11.75;;
77359;SDS011;66426;51.454;7.266;2023-04-23T02:56:24;21.92;;;11.93;;
77359;SDS011;66426;51.454;7.266;2023-04-23T02:57:25;26.63;;;14.15;;
77359;SDS011;66426;51.454;7.266;2023-04-23T02:58:27;24.85;;;12.80;;
77359;SDS011;66426;51.454;7.266;2023-04-23T02:59:28;23.55;;;12.48;;
77359;SDS011;66426;51.454;7.266;2023-04-23T03:00:29;22.75;;;12.80;;
77359;SDS011;66426;51.454;7.266;2023-04-23T03:01:31;22.88;;;13.18;;
77359;SDS011;66426;51.454;7.266;2023-04-23T03:02:32;21.45;;;12.85;;
77359;SDS011;66426;51.454;7.266;2023-04-23T03:03:33;24.27;;;12.98;;
77359;SDS011;66426;51.454;7.266;2023-04-23T03:04:34;22.95;;;12.55;;
77359;SDS011;66426;51.454;7.266;2023-04-23T03:05:34;22.95;;;13.15;;
77359;SDS011;66426;51.454;7.266;2023-04-23T03:06:35;21.73;;;12.27;;
77359;SDS011;66426;51.454;7.266;2023-04-23T03:07:36;20.42;;;11.88;;
77359;SDS011;66426;51.454;7.266;2023-04-23T03:08:37;22.95;;;12.55;;
77359;SDS011;66426;51.454;7.266;2023-04-23T03:09:40;22.90;;;12.88;;
77359;SDS011;66426;51.454;7.266;2023-04-23T03:10:41;22.35;;;12.38;;
77359;SDS011;66426;51.454;7.266;2023-04-23T03:11:42;22.42;;;12.20;;
77359;SDS011;66426;51.454;7.266;2023-04-23T03:12:43;21.92;;;12.20;;
77359;SDS011;66426;51.454;7.266;2023-04-23T03:13:44;25.42;;;13.00;;
77359;SDS011;66426;51.454;7.266;2023-04-23T03:14:45;25.27;;;13.45;;
77359;SDS011;66426;51.454;7.266;2023-04-23T03:15:46;25.42;;;13.02;;
77359;SDS011;66426;51.454;7.266;2023-04-23T03:16:47;24.15;;;13.07;;
77359;SDS011;66426;51.454;7.266;2023-04-23T03:17:48;21.13;;;12.23;;
77359;SDS011;66426;51.454;7.266;2023-04-23T03:18:51;22.92;;;13.30;;
77359;SDS011;66426;51.454;7.266;2023-04-23T03:19:52;21.35;;;12.05;;
77359;SDS011;66426;51.454;7.266;2023-04-23T03:20:53;20.67;;;12.18;;
77359;SDS011;66426;51.454;7.266;2023-04-23T03:21:54;24.40;;;14.10;;
77359;SDS011;66426;51.454;7.266;2023-04-23T03:22:55;24.10;;;12.90;;
77359;SDS011;66426;51.454;7.266;2023-04-23T03:23:56;21.15;;;12.10;;
77359;SDS011;66426;51.454;7.266;2023-04-23T03:24:58;22.08;;;11.65;;
77359;SDS011;66426;51.454;7.266;2023-04-23T03:25:59;21.70;;;12.05;;
77359;SDS011;66426;51.454;7.266;2023-04-23T03:27:00;23.30;;;11.85;;
77359;SDS011;66426;51.454;7.266;2023-04-23T03:28:01;24.55;;;12.65;;
77359;SDS011;66426;51.454;7.266;2023-04-23T03:29:02;22.35;;;12.43;;
77359;SDS011;66426;51.454;7.266;2023-04-23T03:30:03;18.88;;;11.18;;
77359;SDS011;66426;51.454;7.266;2023-04-23T03:31:04;26.25;;;13.38;;
77359;SDS011;66426;51.454;7.266;2023-04-23T03:32:05;23.58;;;13.35;;
77359;SDS011;66426;51.454;7.266;2023-04-23T03:33:06;20.08;;;12.27;;
77359;SDS011;66426;51.454;7.266;2023-04-23T03:34:07;23.45;;;13.05;;
77359;SDS011;66426;51.454;7.266;2023-04-23T03:35:08;23.73;;;12.50;;
77359;SDS011;66426;51.454;7.266;2023-04-23T03:36:09;23.92;;;13.07;;
77359;SDS011;66426;51.454;7.266;2023-04-23T03:37:10;20.95;;;12.13;;
77359;SDS011;66426;51.454;7.266;2023-04-23T03:38:11;22.63;;;12.50;;
77359;SDS011;66426;51.454;7.266;2023-04-23T03:39:12;24.15;;;12.75;;
77359;SDS011;66426;51.454;7.266;2023-04-23T03:40:14;23.17;;;12.75;;
77359;SDS011;66426;51.454;7.266;2023-04-23T03:41:15;23.23;;;12.65;;
77359;SDS011;66426;51.454;7.266;2023-04-23T03:42:16;21.15;;;11.90;;
77359;SDS011;66426;51.454;7.266;2023-04-23T03:43:17;24.63;;;13.75;;
77359;SDS011;66426;51.454;7.266;2023-04-23T03:44:18;26.95;;;13.23;;
77359;SDS011;66426;51.454;7.266;2023-04-23T03:45:19;21.80;;;12.63;;
77359;SDS011;66426;51.454;7.266;2023-04-23T03:46:19;25.20;;;12.73;;
77359;SDS011;66426;51.454;7.266;2023-04-23T03:47:20;23.70;;;13.50;;
77359;SDS011;66426;51.454;7.266;2023-04-23T03:48:21;21.88;;;12.77;;
77359;SDS011;66426;51.454;7.266;2023-04-23T03:49:23;23.10;;;11.95;;
77359;SDS011;66426;51.454;7.266;2023-04-23T03:50:25;21.52;;;12.23;;
77359;SDS011;66426;51.454;7.266;2023-04-23T03:51:26;22.33;;;12.05;;
77359;SDS011;66426;51.454;7.266;2023-04-23T03:52:27;22.17;;;12.00;;
77359;SDS011;66426;51.454;7.266;2023-04-23T03:53:28;24.67;;;12.27;;
77359;SDS011;66426;51.454;7.266;2023-04-23T03:54:29;23.63;;;13.20;;
77359;SDS011;66426;51.454;7.266;2023-04-23T03:55:31;25.08;;;12.73;;
77359;SDS011;66426;51.454;7.266;2023-04-23T03:56:32;22.17;;;12.40;;
77359;SDS011;66426;51.454;7.266;2023-04-23T03:57:33;23.23;;;12.73;;
77359;SDS011;66426;51.454;7.266;2023-04-23T03:58:34;23.48;;;12.70;;
77359;SDS011;66426;51.454;7.266;2023-04-23T03:59:35;20.75;;;12.45;;
77359;SDS011;66426;51.454;7.266;2023-04-23T04:00:36;23.17;;;12.45;;
77359;SDS011;66426;51.454;7.266;2023-04-23T04:01:36;23.95;;;13.35;;
77359;SDS011;66426;51.454;7.266;2023-04-23T04:02:37;22.95;;;12.82;;
77359;SDS011;66426;51.454;7.266;2023-04-23T04:03:38;25.08;;;13.55;;
77359;SDS011;66426;51.454;7.266;2023-04-23T04:04:39;21.52;;;13.00;;
77359;SDS011;66426;51.454;7.266;2023-04-23T04:05:42;20.15;;;12.15;;
77359;SDS011;66426;51.454;7.266;2023-04-23T04:06:43;22.65;;;13.00;;
77359;SDS011;66426;51.454;7.266;2023-04-23T04:07:44;21.13;;;12.95;;
77359;SDS011;66426;51.454;7.266;2023-04-23T04:08:45;23.80;;;12.52;;
77359;SDS011;66426;51.454;7.266;2023-04-23T04:09:46;20.63;;;12.18;;
77359;SDS011;66426;51.454;7.266;2023-04-23T04:10:50;23.33;;;12.45;;
77359;SDS011;66426;51.454;7.266;2023-04-23T04:11:51;22.13;;;12.75;;
77359;SDS011;66426;51.454;7.266;2023-04-23T04:12:53;23.70;;;12.48;;
77359;SDS011;66426;51.454;7.266;2023-04-23T04:13:54;32.30;;;13.02;;
77359;SDS011;66426;51.454;7.266;2023-04-23T04:14:55;22.40;;;12.40;;
77359;SDS011;66426;51.454;7.266;2023-04-23T04:15:56;22.25;;;12.38;;
77359;SDS011;66426;51.454;7.266;2023-04-23T04:16:57;23.25;;;12.90;;
77359;SDS011;66426;51.454;7.266;2023-04-23T04:17:58;21.45;;;12.27;;
77359;SDS011;66426;51.454;7.266;2023-04-23T04:19:00;21.83;;;13.07;;
77359;SDS011;66426;51.454;7.266;2023-04-23T04:20:01;24.33;;;12.50;;
77359;SDS011;66426;51.454;7.266;2023-04-23T04:21:02;21.00;;;11.48;;
77359;SDS011;66426;51.454;7.266;2023-04-23T04:22:03;20.55;;;12.15;;
77359;SDS011;66426;51.454;7.266;2023-04-23T04:23:04;20.42;;;12.15;;
77359;SDS011;66426;51.454;7.266;2023-04-23T04:24:05;22.30;;;12.23;;
77359;SDS011;66426;51.454;7.266;2023-04-23T04:25:07;22.70;;;13.32;;
77359;SDS011;66426;51.454;7.266;2023-04-23T04:26:09;21.00;;;11.80;;
77359;SDS011;66426;51.454;7.266;2023-04-23T04:27:10;22.75;;;11.70;;
77359;SDS011;66426;51.454;7.266;2023-04-23T04:28:11;21.23;;;12.68;;
77359;SDS011;66426;51.454;7.266;2023-04-23T04:29:12;23.20;;;12.30;;
77359;SDS011;66426;51.454;7.266;2023-04-23T04:30:13;21.58;;;12.18;;
77359;SDS011;66426;51.454;7.266;2023-04-23T04:31:14;21.63;;;12.82;;
77359;SDS011;66426;51.454;7.266;2023-04-23T04:32:15;21.15;;;12.13;;
77359;SDS011;66426;51.454;7.266;2023-04-23T04:33:16;21.92;;;12.50;;
77359;SDS011;66426;51.454;7.266;2023-04-23T04:34:18;21.05;;;11.40;;
77359;SDS011;66426;51.454;7.266;2023-04-23T04:35:19;20.25;;;11.75;;
77359;SDS011;66426;51.454;7.266;2023-04-23T04:36:20;22.25;;;12.25;;
77359;SDS011;66426;51.454;7.266;2023-04-23T04:37:21;20.30;;;11.75;;
77359;SDS011;66426;51.454;7.266;2023-04-23T04:38:22;19.90;;;12.10;;
77359;SDS011;66426;51.454;7.266;2023-04-23T04:39:23;17.13;;;10.80;;
77359;SDS011;66426;51.454;7.266;2023-04-23T04:40:25;22.10;;;11.45;;
77359;SDS011;66426;51.454;7.266;2023-04-23T04:41:29;19.98;;;11.43;;
77359;SDS011;66426;51.454;7.266;2023-04-23T04:42:30;19.45;;;11.27;;
77359;SDS011;66426;51.454;7.266;2023-04-23T04:43:31;20.40;;;11.52;;
77359;SDS011;66426;51.454;7.266;2023-04-23T04:44:33;20.50;;;12.00;;
77359;SDS011;66426;51.454;7.266;2023-04-23T04:45:36;22.38;;;11.48;;
77359;SDS011;66426;51.454;7.266;2023-04-23T04:46:37;20.23;;;11.30;;
77359;SDS011;66426;51.454;7.266;2023-04-23T04:47:39;17.98;;;10.52;;
77359;SDS011;66426;51.454;7.266;2023-04-23T04:48:41;18.25;;;10.35;;
77359;SDS011;66426;51.454;7.266;2023-04-23T04:49:42;21.05;;;11.93;;
77359;SDS011;66426;51.454;7.266;2023-04-23T04:50:43;21.40;;;11.63;;
77359;SDS011;66426;51.454;7.266;2023-04-23T04:51:44;22.33;;;11.52;;
77359;SDS011;66426;51.454;7.266;2023-04-23T04:52:45;18.73;;;10.73;;
77359;SDS011;66426;51.454;7.266;2023-04-23T04:53:45;19.90;;;11.02;;
77359;SDS011;66426;51.454;7.266;2023-04-23T04:54:46;17.95;;;10.57;;
77359;SDS011;66426;51.454;7.266;2023-04-23T04:55:47;16.17;;;10.00;;
77359;SDS011;66426;51.454;7.266;2023-04-23T04:56:50;19.27;;;11.07;;
77359;SDS011;66426;51.454;7.266;2023-04-23T04:57:51;18.45;;;10.95;;
77359;SDS011;66426;51.454;7.266;2023-04-23T04:58:52;18.48;;;10.48;;
77359;SDS011;66426;51.454;7.266;2023-04-23T04:59:53;23.95;;;11.52;;
77359;SDS011;66426;51.454;7.266;2023-04-23T05:00:54;21.10;;;11.18;;
77359;SDS011;66426;51.454;7.266;2023-04-23T05:01:55;18.45;;;10.77;;
77359;SDS011;66426;51.454;7.266;2023-04-23T05:02:56;18.02;;;10.88;;
77359;SDS011;66426;51.454;7.266;2023-04-23T05:03:58;18.38;;;11.07;;
77359;SDS011;66426;51.454;7.266;2023-04-23T05:04:59;18.58;;;10.80;;
77359;SDS011;66426;51.454;7.266;2023-04-23T05:06:00;20.42;;;11.20;;
77359;SDS011;66426;51.454;7.266;2023-04-23T05:07:01;17.85;;;10.80;;
77359;SDS011;66426;51.454;7.266;2023-04-23T05:08:02;18.48;;;10.30;;
77359;SDS011;66426;51.454;7.266;2023-04-23T05:09:03;18.40;;;10.73;;
77359;SDS011;66426;51.454;7.266;2023-04-23T05:10:04;17.98;;;10.82;;
77359;SDS011;66426;51.454;7.266;2023-04-23T05:11:06;19.13;;;11.00;;
77359;SDS011;66426;51.454;7.266;2023-04-23T05:12:08;19.05;;;10.40;;
77359;SDS011;66426;51.454;7.266;2023-04-23T05:13:09;18.60;;;11.52;;
77359;SDS011;66426;51.454;7.266;2023-04-23T05:14:10;17.55;;;9.65;;
77359;SDS011;66426;51.454;7.266;2023-04-23T05:15:11;17.40;;;11.23;;
77359;SDS011;66426;51.454;7.266;2023-04-23T05:16:13;18.33;;;10.88;;
77359;SDS011;66426;51.454;7.266;2023-04-23T05:17:14;18.88;;;10.85;;
77359;SDS011;66426;51.454;7.266;2023-04-23T05:18:15;17.50;;;10.90;;
77359;SDS011;66426;51.454;7.266;2023-04-23T05:19:16;18.55;;;10.25;;
77359;SDS011;66426;51.454;7.266;2023-04-23T05:20:17;16.80;;;10.18;;
77359;SDS011;66426;51.454;7.266;2023-04-23T05:21:18;17.42;;;10.57;;
77359;SDS011;66426;51.454;7.266;2023-04-23T05:22:20;15.70;;;10.18;;
77359;SDS011;66426;51.454;7.266;2023-04-23T05:23:21;17.33;;;10.30;;
77359;SDS011;66426;51.454;7.266;2023-04-23T05:24:22;16.42;;;9.82;;
77359;SDS011;66426;51.454;7.266;2023-04-23T05:25:22;18.92;;;10.63;;
77359;SDS011;66426;51.454;7.266;2023-04-23T05:26:23;17.10;;;11.13;;
77359;SDS011;66426;51.454;7.266;2023-04-23T05:27:26;18.98;;;10.15;;
77359;SDS011;66426;51.454;7.266;2023-04-23T05:28:27;17.52;;;9.70;;
77359;SDS011;66426;51.454;7.266;2023-04-23T05:29:28;19.50;;;10.63;;
77359;SDS011;66426;51.454;7.266;2023-04-23T05:30:29;19.17;;;10.80;;
77359;SDS011;66426;51.454;7.266;2023-04-23T05:31:30;16.40;;;10.02;;
77359;SDS011;66426;51.454;7.266;2023-04-23T05:32:31;18.50;;;10.40;;
77359;SDS011;66426;51.454;7.266;2023-04-23T05:33:32;24.42;;;10.40;;
77359;SDS011;66426;51.454;7.266;2023-04-23T05:34:34;16.08;;;9.90;;
77359;SDS011;66426;51.454;7.266;2023-04-23T05:35:35;18.83;;;10.55;;
77359;SDS011;66426;51.454;7.266;2023-04-23T05:36:36;16.33;;;10.20;;
77359;SDS011;66426;51.454;7.266;2023-04-23T05:37:37;22.80;;;10.07;;
77359;SDS011;66426;51.454;7.266;2023-04-23T05:38:38;16.48;;;9.73;;
77359;SDS011;66426;51.454;7.266;2023-04-23T05:39:39;16.98;;;9.65;;
77359;SDS011;66426;51.454;7.266;2023-04-23T05:40:40;14.90;;;9.25;;
77359;SDS011;66426;51.454;7.266;2023-04-23T05:41:41;15.93;;;9.40;;
77359;SDS011;66426;51.454;7.266;2023-04-23T05:42:43;16.83;;;9.85;;
77359;SDS011;66426;51.454;7.266;2023-04-23T05:43:44;16.42;;;9.00;;
77359;SDS011;66426;51.454;7.266;2023-04-23T05:44:45;16.92;;;9.80;;
77359;SDS011;66426;51.454;7.266;2023-04-23T05:45:46;14.32;;;9.15;;
77359;SDS011;66426;51.454;7.266;2023-04-23T05:46:47;15.20;;;9.00;;
77359;SDS011;66426;51.454;7.266;2023-04-23T05:47:47;14.40;;;8.85;;
77359;SDS011;66426;51.454;7.266;2023-04-23T05:48:48;17.80;;;8.82;;
77359;SDS011;66426;51.454;7.266;2023-04-23T05:49:49;14.90;;;8.98;;
77359;SDS011;66426;51.454;7.266;2023-04-23T05:50:50;16.05;;;9.02;;
77359;SDS011;66426;51.454;7.266;2023-04-23T05:51:51;15.75;;;9.35;;
77359;SDS011;66426;51.454;7.266;2023-04-23T05:52:52;16.38;;;9.75;;
77359;SDS011;66426;51.454;7.266;2023-04-23T05:53:53;14.40;;;9.27;;
77359;SDS011;66426;51.454;7.266;2023-04-23T05:54:54;14.98;;;9.57;;
77359;SDS011;66426;51.454;7.266;2023-04-23T05:55:55;16.38;;;9.00;;
77359;SDS011;66426;51.454;7.266;2023-04-23T05:56:56;13.93;;;8.43;;
77359;SDS011;66426;51.454;7.266;2023-04-23T05:57:58;17.13;;;9.55;;
77359;SDS011;66426;51.454;7.266;2023-04-23T05:58:59;16.15;;;8.60;;